sensor_id;sensor_type;location;lat;lon;timestamp;pressure;altitude;pressure_sealevel;temperature
18713;BMP280;9485;49.386;8.674;2022-08-21T00:01:52;100443.97;;;20.93
18713;BMP280;9485;49.386;8.674;2022-08-21T00:07:14;100438.16;;;20.78
18713;BMP280;9485;49.386;8.674;2022-08-21T00:12:35;100441.78;;;20.78
18713;BMP280;9485;49.386;8.674;2022-08-21T00:17:57;100444.81;;;20.73
18713;BMP280;9485;49.386;8.674;2022-08-21T00:23:19;100444.19;;;20.67
18713;BMP280;9485;49.386;8.674;2022-08-21T00:28:40;100433.44;;;20.60
18713;BMP280;9485;49.386;8.674;2022-08-21T00:34:01;100422.69;;;20.53
18713;BMP280;9485;49.386;8.674;2022-08-21T00:39:23;100429.16;;;20.46
18713;BMP280;9485;49.386;8.674;2022-08-21T00:44:45;100424.91;;;20.39
18713;BMP280;9485;49.386;8.674;2022-08-21T00:50:12;100419.53;;;20.36
18713;BMP280;9485;49.386;8.674;2022-08-21T00:55:36;100425.63;;;20.33
18713;BMP280;9485;49.386;8.674;2022-08-21T01:00:59;100427.91;;;20.27
18713;BMP280;9485;49.386;8.674;2022-08-21T01:06:21;100427.25;;;20.21
18713;BMP280;9485;49.386;8.674;2022-08-21T01:11:43;100421.69;;;20.15
18713;BMP280;9485;49.386;8.674;2022-08-21T01:17:04;100418.84;;;19.95
18713;BMP280;9485;49.386;8.674;2022-08-21T01:22:27;100427.56;;;19.28
18713;BMP280;9485;49.386;8.674;2022-08-21T01:27:48;100430.09;;;18.73
18713;BMP280;9485;49.386;8.674;2022-08-21T01:33:10;100432.97;;;18.34
18713;BMP280;9485;49.386;8.674;2022-08-21T01:38:32;100435.25;;;18.09
18713;BMP280;9485;49.386;8.674;2022-08-21T01:43:52;100417.31;;;17.96
18713;BMP280;9485;49.386;8.674;2022-08-21T01:49:13;100430.81;;;17.83
18713;BMP280;9485;49.386;8.674;2022-08-21T01:54:36;100427.91;;;17.70
18713;BMP280;9485;49.386;8.674;2022-08-21T01:59:57;100427.81;;;17.62
18713;BMP280;9485;49.386;8.674;2022-08-21T02:05:19;100414.91;;;17.56
18713;BMP280;9485;49.386;8.674;2022-08-21T02:10:41;100413.78;;;17.46
18713;BMP280;9485;49.386;8.674;2022-08-21T02:16:03;100398.16;;;17.34
18713;BMP280;9485;49.386;8.674;2022-08-21T02:21:23;100401.56;;;17.33
18713;BMP280;9485;49.386;8.674;2022-08-21T02:26:46;100404.84;;;17.36
18713;BMP280;9485;49.386;8.674;2022-08-21T02:32:06;100407.19;;;17.38
18713;BMP280;9485;49.386;8.674;2022-08-21T02:37:27;100395.22;;;17.39
18713;BMP280;9485;49.386;8.674;2022-08-21T02:42:50;100392.44;;;17.34
18713;BMP280;9485;49.386;8.674;2022-08-21T02:48:16;100388.72;;;17.39
18713;BMP280;9485;49.386;8.674;2022-08-21T02:53:38;100401.69;;;17.40
18713;BMP280;9485;49.386;8.674;2022-08-21T02:59:00;100389.81;;;17.36
18713;BMP280;9485;49.386;8.674;2022-08-21T03:04:20;100402.31;;;17.33
18713;BMP280;9485;49.386;8.674;2022-08-21T03:09:41;100394.00;;;17.35
18713;BMP280;9485;49.386;8.674;2022-08-21T03:15:06;100397.84;;;17.37
18713;BMP280;9485;49.386;8.674;2022-08-21T03:20:28;100402.25;;;17.38
18713;BMP280;9485;49.386;8.674;2022-08-21T03:25:51;100405.84;;;17.39
18713;BMP280;9485;49.386;8.674;2022-08-21T03:31:13;100409.50;;;17.39
18713;BMP280;9485;49.386;8.674;2022-08-21T03:36:33;100406.63;;;17.39
18713;BMP280;9485;49.386;8.674;2022-08-21T03:41:54;100407.41;;;17.40
18713;BMP280;9485;49.386;8.674;2022-08-21T03:47:16;100411.56;;;17.39
18713;BMP280;9485;49.386;8.674;2022-08-21T03:52:36;100406.16;;;17.35
18713;BMP280;9485;49.386;8.674;2022-08-21T03:57:56;100411.66;;;17.33
18713;BMP280;9485;49.386;8.674;2022-08-21T04:03:20;100421.00;;;17.34
18713;BMP280;9485;49.386;8.674;2022-08-21T04:08:41;100432.72;;;17.31
18713;BMP280;9485;49.386;8.674;2022-08-21T04:14:03;100442.88;;;17.26
18713;BMP280;9485;49.386;8.674;2022-08-21T04:19:24;100441.44;;;17.20
18713;BMP280;9485;49.386;8.674;2022-08-21T04:24:45;100444.91;;;17.13
18713;BMP280;9485;49.386;8.674;2022-08-21T04:30:08;100445.22;;;17.09
18713;BMP280;9485;49.386;8.674;2022-08-21T04:35:30;100452.22;;;17.08
18713;BMP280;9485;49.386;8.674;2022-08-21T04:40:52;100454.84;;;17.06
18713;BMP280;9485;49.386;8.674;2022-08-21T04:46:13;100465.25;;;17.04
18713;BMP280;9485;49.386;8.674;2022-08-21T04:51:37;100466.56;;;17.03
18713;BMP280;9485;49.386;8.674;2022-08-21T04:57:02;100467.34;;;17.03
18713;BMP280;9485;49.386;8.674;2022-08-21T05:02:25;100478.34;;;17.12
18713;BMP280;9485;49.386;8.674;2022-08-21T05:07:48;100462.47;;;17.17
18713;BMP280;9485;49.386;8.674;2022-08-21T05:13:09;100476.13;;;17.24
18713;BMP280;9485;49.386;8.674;2022-08-21T05:18:31;100477.84;;;17.32
18713;BMP280;9485;49.386;8.674;2022-08-21T05:23:53;100480.22;;;17.46
18713;BMP280;9485;49.386;8.674;2022-08-21T05:29:16;100490.63;;;17.62
18713;BMP280;9485;49.386;8.674;2022-08-21T05:34:37;100480.22;;;17.78
18713;BMP280;9485;49.386;8.674;2022-08-21T05:40:00;100470.16;;;17.90
18713;BMP280;9485;49.386;8.674;2022-08-21T05:45:21;100484.03;;;18.11
18713;BMP280;9485;49.386;8.674;2022-08-21T05:50:44;100486.06;;;18.29
18713;BMP280;9485;49.386;8.674;2022-08-21T05:56:06;100484.34;;;18.52
18713;BMP280;9485;49.386;8.674;2022-08-21T06:01:27;100485.44;;;18.75
18713;BMP280;9485;49.386;8.674;2022-08-21T06:06:48;100493.75;;;18.99
18713;BMP280;9485;49.386;8.674;2022-08-21T06:12:12;100479.97;;;19.23
18713;BMP280;9485;49.386;8.674;2022-08-21T06:17:33;100488.84;;;19.46
18713;BMP280;9485;49.386;8.674;2022-08-21T06:22:54;100495.56;;;19.68
18713;BMP280;9485;49.386;8.674;2022-08-21T06:28:16;100495.97;;;19.93
18713;BMP280;9485;49.386;8.674;2022-08-21T06:33:36;100492.94;;;20.11
18713;BMP280;9485;49.386;8.674;2022-08-21T06:38:57;100502.25;;;20.52
18713;BMP280;9485;49.386;8.674;2022-08-21T06:44:19;100502.66;;;21.62
18713;BMP280;9485;49.386;8.674;2022-08-21T06:49:40;100498.31;;;22.66
18713;BMP280;9485;49.386;8.674;2022-08-21T06:55:05;100513.72;;;23.15
18713;BMP280;9485;49.386;8.674;2022-08-21T07:00:27;100509.97;;;24.08
18713;BMP280;9485;49.386;8.674;2022-08-21T07:05:48;100507.97;;;25.51
18713;BMP280;9485;49.386;8.674;2022-08-21T07:11:13;100507.66;;;26.90
18713;BMP280;9485;49.386;8.674;2022-08-21T07:16:36;100510.25;;;27.80
18713;BMP280;9485;49.386;8.674;2022-08-21T07:22:00;100510.72;;;29.07
18713;BMP280;9485;49.386;8.674;2022-08-21T07:27:21;100500.63;;;30.28
18713;BMP280;9485;49.386;8.674;2022-08-21T07:32:44;100504.75;;;31.41
18713;BMP280;9485;49.386;8.674;2022-08-21T07:38:04;100500.72;;;31.85
18713;BMP280;9485;49.386;8.674;2022-08-21T07:43:26;100500.25;;;32.40
18713;BMP280;9485;49.386;8.674;2022-08-21T07:48:48;100497.63;;;32.99
18713;BMP280;9485;49.386;8.674;2022-08-21T07:54:09;100495.34;;;33.54
18713;BMP280;9485;49.386;8.674;2022-08-21T07:59:30;100498.81;;;34.08
18713;BMP280;9485;49.386;8.674;2022-08-21T08:04:52;100496.09;;;34.58
18713;BMP280;9485;49.386;8.674;2022-08-21T08:10:13;100495.06;;;35.00
18713;BMP280;9485;49.386;8.674;2022-08-21T08:15:35;100489.50;;;35.40
18713;BMP280;9485;49.386;8.674;2022-08-21T08:20:58;100481.97;;;35.88
18713;BMP280;9485;49.386;8.674;2022-08-21T08:26:18;100488.31;;;36.17
18713;BMP280;9485;49.386;8.674;2022-08-21T08:31:39;100489.28;;;36.79
18713;BMP280;9485;49.386;8.674;2022-08-21T08:37:01;100480.06;;;37.30
18713;BMP280;9485;49.386;8.674;2022-08-21T08:42:28;100473.81;;;37.84
18713;BMP280;9485;49.386;8.674;2022-08-21T08:47:55;100468.13;;;38.37
18713;BMP280;9485;49.386;8.674;2022-08-21T08:53:23;100461.13;;;39.00
18713;BMP280;9485;49.386;8.674;2022-08-21T08:58:47;100449.97;;;39.51
18713;BMP280;9485;49.386;8.674;2022-08-21T09:04:12;100445.31;;;40.03
18713;BMP280;9485;49.386;8.674;2022-08-21T09:09:48;100438.72;;;40.38
18713;BMP280;9485;49.386;8.674;2022-08-21T09:15:23;100433.00;;;40.14
18713;BMP280;9485;49.386;8.674;2022-08-21T09:21:15;100421.84;;;40.44
18713;BMP280;9485;49.386;8.674;2022-08-21T09:26:49;100417.91;;;40.69
18713;BMP280;9485;49.386;8.674;2022-08-21T09:32:18;100416.47;;;41.09
18713;BMP280;9485;49.386;8.674;2022-08-21T09:37:53;100418.84;;;41.17
18713;BMP280;9485;49.386;8.674;2022-08-21T09:43:20;100413.66;;;41.60
18713;BMP280;9485;49.386;8.674;2022-08-21T09:48:45;100408.94;;;41.46
18713;BMP280;9485;49.386;8.674;2022-08-21T09:54:17;100410.75;;;41.62
18713;BMP280;9485;49.386;8.674;2022-08-21T09:59:40;100410.56;;;42.00
18713;BMP280;9485;49.386;8.674;2022-08-21T10:05:07;100408.28;;;42.49
18713;BMP280;9485;49.386;8.674;2022-08-21T10:10:32;100404.69;;;42.63
18713;BMP280;9485;49.386;8.674;2022-08-21T10:16:15;100394.44;;;42.72
18713;BMP280;9485;49.386;8.674;2022-08-21T10:21:44;100394.22;;;42.56
18713;BMP280;9485;49.386;8.674;2022-08-21T10:27:22;100391.16;;;42.46
18713;BMP280;9485;49.386;8.674;2022-08-21T10:33:12;100383.63;;;41.84
18713;BMP280;9485;49.386;8.674;2022-08-21T10:39:04;100379.44;;;41.52
18713;BMP280;9485;49.386;8.674;2022-08-21T10:44:47;100367.50;;;41.04
18713;BMP280;9485;49.386;8.674;2022-08-21T10:50:27;100365.22;;;40.62
18713;BMP280;9485;49.386;8.674;2022-08-21T10:55:57;100363.06;;;40.66
18713;BMP280;9485;49.386;8.674;2022-08-21T11:01:27;100368.97;;;41.03
18713;BMP280;9485;49.386;8.674;2022-08-21T11:06:58;100356.59;;;41.15
18713;BMP280;9485;49.386;8.674;2022-08-21T11:12:27;100354.94;;;41.06
18713;BMP280;9485;49.386;8.674;2022-08-21T11:18:00;100346.31;;;40.78
18713;BMP280;9485;49.386;8.674;2022-08-21T11:23:33;100336.72;;;40.41
18713;BMP280;9485;49.386;8.674;2022-08-21T11:29:04;100328.78;;;40.16
18713;BMP280;9485;49.386;8.674;2022-08-21T11:34:45;100324.81;;;40.39
18713;BMP280;9485;49.386;8.674;2022-08-21T11:40:34;100324.38;;;40.54
18713;BMP280;9485;49.386;8.674;2022-08-21T11:46:13;100321.34;;;40.50
18713;BMP280;9485;49.386;8.674;2022-08-21T11:51:45;100326.34;;;40.79
18713;BMP280;9485;49.386;8.674;2022-08-21T11:57:17;100312.56;;;40.95
18713;BMP280;9485;49.386;8.674;2022-08-21T12:02:51;100307.72;;;40.73
18713;BMP280;9485;49.386;8.674;2022-08-21T12:08:25;100298.16;;;40.76
18713;BMP280;9485;49.386;8.674;2022-08-21T12:13:56;100309.56;;;40.93
18713;BMP280;9485;49.386;8.674;2022-08-21T12:19:31;100303.84;;;40.66
18713;BMP280;9485;49.386;8.674;2022-08-21T12:25:06;100297.59;;;40.46
18713;BMP280;9485;49.386;8.674;2022-08-21T12:30:37;100293.13;;;40.45
18713;BMP280;9485;49.386;8.674;2022-08-21T12:36:09;100288.94;;;40.58
18713;BMP280;9485;49.386;8.674;2022-08-21T12:41:43;100291.22;;;40.62
18713;BMP280;9485;49.386;8.674;2022-08-21T12:47:16;100279.00;;;40.81
18713;BMP280;9485;49.386;8.674;2022-08-21T12:52:45;100280.16;;;41.07
18713;BMP280;9485;49.386;8.674;2022-08-21T12:58:18;100281.69;;;41.58
18713;BMP280;9485;49.386;8.674;2022-08-21T13:03:41;100270.59;;;42.15
18713;BMP280;9485;49.386;8.674;2022-08-21T13:09:08;100272.13;;;42.93
18713;BMP280;9485;49.386;8.674;2022-08-21T13:14:33;100264.41;;;43.55
18713;BMP280;9485;49.386;8.674;2022-08-21T13:20:00;100266.63;;;43.53
18713;BMP280;9485;49.386;8.674;2022-08-21T13:25:28;100268.13;;;43.56
18713;BMP280;9485;49.386;8.674;2022-08-21T13:30:52;100263.72;;;43.67
18713;BMP280;9485;49.386;8.674;2022-08-21T13:36:20;100257.09;;;43.78
18713;BMP280;9485;49.386;8.674;2022-08-21T13:41:48;100254.84;;;43.77
18713;BMP280;9485;49.386;8.674;2022-08-21T13:47:12;100251.81;;;43.61
18713;BMP280;9485;49.386;8.674;2022-08-21T13:52:55;100244.91;;;43.26
18713;BMP280;9485;49.386;8.674;2022-08-21T13:58:26;100248.31;;;42.85
18713;BMP280;9485;49.386;8.674;2022-08-21T14:03:50;100234.34;;;42.25
18713;BMP280;9485;49.386;8.674;2022-08-21T14:09:25;100242.75;;;41.81
18713;BMP280;9485;49.386;8.674;2022-08-21T14:14:47;100230.31;;;41.39
18713;BMP280;9485;49.386;8.674;2022-08-21T14:20:12;100226.28;;;41.17
18713;BMP280;9485;49.386;8.674;2022-08-21T14:25:46;100209.56;;;40.90
18713;BMP280;9485;49.386;8.674;2022-08-21T14:31:18;100209.03;;;40.60
18713;BMP280;9485;49.386;8.674;2022-08-21T14:36:39;100207.41;;;40.10
18713;BMP280;9485;49.386;8.674;2022-08-21T14:42:02;100203.81;;;39.80
18713;BMP280;9485;49.386;8.674;2022-08-21T14:47:22;100192.28;;;39.57
18713;BMP280;9485;49.386;8.674;2022-08-21T14:52:43;100188.22;;;39.40
18713;BMP280;9485;49.386;8.674;2022-08-21T14:58:06;100173.34;;;39.03
18713;BMP280;9485;49.386;8.674;2022-08-21T15:03:27;100172.56;;;38.42
18713;BMP280;9485;49.386;8.674;2022-08-21T15:08:48;100173.84;;;37.80
18713;BMP280;9485;49.386;8.674;2022-08-21T15:14:20;100166.13;;;36.95
18713;BMP280;9485;49.386;8.674;2022-08-21T15:19:41;100154.56;;;36.35
18713;BMP280;9485;49.386;8.674;2022-08-21T15:25:03;100151.78;;;35.77
18713;BMP280;9485;49.386;8.674;2022-08-21T15:30:26;100162.69;;;35.17
18713;BMP280;9485;49.386;8.674;2022-08-21T15:35:47;100154.06;;;34.66
18713;BMP280;9485;49.386;8.674;2022-08-21T15:41:33;100157.34;;;34.22
18713;BMP280;9485;49.386;8.674;2022-08-21T15:46:56;100153.72;;;33.73
18713;BMP280;9485;49.386;8.674;2022-08-21T15:52:20;100148.97;;;33.34
18713;BMP280;9485;49.386;8.674;2022-08-21T15:57:47;100138.00;;;33.03
18713;BMP280;9485;49.386;8.674;2022-08-21T16:03:14;100136.22;;;32.81
18713;BMP280;9485;49.386;8.674;2022-08-21T16:08:36;100129.59;;;32.65
18713;BMP280;9485;49.386;8.674;2022-08-21T16:13:56;100136.19;;;32.50
18713;BMP280;9485;49.386;8.674;2022-08-21T16:19:19;100140.56;;;32.36
18713;BMP280;9485;49.386;8.674;2022-08-21T16:24:39;100132.44;;;32.19
18713;BMP280;9485;49.386;8.674;2022-08-21T16:30:03;100124.97;;;32.03
18713;BMP280;9485;49.386;8.674;2022-08-21T16:35:26;100124.06;;;31.85
18713;BMP280;9485;49.386;8.674;2022-08-21T16:40:47;100123.34;;;31.71
18713;BMP280;9485;49.386;8.674;2022-08-21T16:46:10;100112.22;;;31.54
18713;BMP280;9485;49.386;8.674;2022-08-21T16:51:33;100114.91;;;31.36
18713;BMP280;9485;49.386;8.674;2022-08-21T16:56:54;100107.78;;;31.26
18713;BMP280;9485;49.386;8.674;2022-08-21T17:02:27;100093.88;;;31.11
18713;BMP280;9485;49.386;8.674;2022-08-21T17:07:49;100108.22;;;30.94
18713;BMP280;9485;49.386;8.674;2022-08-21T17:13:10;100111.53;;;30.75
18713;BMP280;9485;49.386;8.674;2022-08-21T17:18:31;100105.97;;;30.54
18713;BMP280;9485;49.386;8.674;2022-08-21T17:23:53;100102.34;;;30.42
18713;BMP280;9485;49.386;8.674;2022-08-21T17:29:14;100103.47;;;30.24
18713;BMP280;9485;49.386;8.674;2022-08-21T17:34:36;100101.91;;;30.09
18713;BMP280;9485;49.386;8.674;2022-08-21T17:39:58;100106.69;;;29.91
18713;BMP280;9485;49.386;8.674;2022-08-21T17:45:19;100099.94;;;29.64
18713;BMP280;9485;49.386;8.674;2022-08-21T17:50:40;100100.50;;;29.38
18713;BMP280;9485;49.386;8.674;2022-08-21T17:56:03;100099.75;;;29.14
18713;BMP280;9485;49.386;8.674;2022-08-21T18:01:27;100098.38;;;28.92
18713;BMP280;9485;49.386;8.674;2022-08-21T18:06:50;100093.41;;;28.72
18713;BMP280;9485;49.386;8.674;2022-08-21T18:12:12;100099.09;;;28.47
18713;BMP280;9485;49.386;8.674;2022-08-21T18:17:33;100101.44;;;28.28
18713;BMP280;9485;49.386;8.674;2022-08-21T18:22:55;100102.13;;;28.06
18713;BMP280;9485;49.386;8.674;2022-08-21T18:28:19;100103.41;;;27.82
18713;BMP280;9485;49.386;8.674;2022-08-21T18:33:41;100109.81;;;27.59
18713;BMP280;9485;49.386;8.674;2022-08-21T18:39:02;100111.97;;;27.38
18713;BMP280;9485;49.386;8.674;2022-08-21T18:44:25;100122.78;;;27.17
18713;BMP280;9485;49.386;8.674;2022-08-21T18:49:47;100119.84;;;26.96
18713;BMP280;9485;49.386;8.674;2022-08-21T18:55:10;100131.66;;;26.79
18713;BMP280;9485;49.386;8.674;2022-08-21T19:00:39;100123.81;;;26.60
18713;BMP280;9485;49.386;8.674;2022-08-21T19:06:04;100126.91;;;26.44
18713;BMP280;9485;49.386;8.674;2022-08-21T19:11:26;100136.66;;;26.29
18713;BMP280;9485;49.386;8.674;2022-08-21T19:16:49;100127.53;;;26.14
18713;BMP280;9485;49.386;8.674;2022-08-21T19:22:09;100140.06;;;25.97
18713;BMP280;9485;49.386;8.674;2022-08-21T19:27:31;100131.69;;;25.82
18713;BMP280;9485;49.386;8.674;2022-08-21T19:32:53;100136.38;;;25.69
18713;BMP280;9485;49.386;8.674;2022-08-21T19:38:14;100145.38;;;25.54
18713;BMP280;9485;49.386;8.674;2022-08-21T19:43:41;100143.50;;;25.39
18713;BMP280;9485;49.386;8.674;2022-08-21T19:49:06;100145.91;;;25.24
18713;BMP280;9485;49.386;8.674;2022-08-21T19:54:29;100145.56;;;25.10
18713;BMP280;9485;49.386;8.674;2022-08-21T19:59:51;100149.00;;;25.00
18713;BMP280;9485;49.386;8.674;2022-08-21T20:05:14;100147.28;;;24.87
18713;BMP280;9485;49.386;8.674;2022-08-21T20:10:39;100149.81;;;24.74
18713;BMP280;9485;49.386;8.674;2022-08-21T20:16:06;100141.09;;;24.64
18713;BMP280;9485;49.386;8.674;2022-08-21T20:21:29;100142.28;;;24.52
18713;BMP280;9485;49.386;8.674;2022-08-21T20:26:50;100148.38;;;24.39
18713;BMP280;9485;49.386;8.674;2022-08-21T20:32:11;100148.94;;;24.28
18713;BMP280;9485;49.386;8.674;2022-08-21T20:37:33;100137.16;;;24.17
18713;BMP280;9485;49.386;8.674;2022-08-21T20:42:55;100139.81;;;24.05
18713;BMP280;9485;49.386;8.674;2022-08-21T20:48:22;100142.63;;;23.96
18713;BMP280;9485;49.386;8.674;2022-08-21T20:53:53;100142.13;;;23.90
18713;BMP280;9485;49.386;8.674;2022-08-21T20:59:31;100144.34;;;23.82
18713;BMP280;9485;49.386;8.674;2022-08-21T21:05:03;100143.66;;;23.74
18713;BMP280;9485;49.386;8.674;2022-08-21T21:10:36;100136.63;;;23.67
18713;BMP280;9485;49.386;8.674;2022-08-21T21:16:02;100134.41;;;23.58
18713;BMP280;9485;49.386;8.674;2022-08-21T21:21:29;100138.13;;;23.51
18713;BMP280;9485;49.386;8.674;2022-08-21T21:27:00;100140.94;;;23.42
18713;BMP280;9485;49.386;8.674;2022-08-21T21:32:22;100147.72;;;23.37
18713;BMP280;9485;49.386;8.674;2022-08-21T21:37:50;100150.44;;;23.35
18713;BMP280;9485;49.386;8.674;2022-08-21T21:43:30;100149.63;;;23.35
18713;BMP280;9485;49.386;8.674;2022-08-21T21:49:06;100148.56;;;23.30
18713;BMP280;9485;49.386;8.674;2022-08-21T21:54:48;100142.44;;;23.26
18713;BMP280;9485;49.386;8.674;2022-08-21T22:00:41;100149.41;;;23.23
18713;BMP280;9485;49.386;8.674;2022-08-21T22:06:12;100140.41;;;23.19
18713;BMP280;9485;49.386;8.674;2022-08-21T22:11:53;100139.28;;;23.15
18713;BMP280;9485;49.386;8.674;2022-08-21T22:17:35;100140.28;;;23.10
18713;BMP280;9485;49.386;8.674;2022-08-21T22:22:56;100146.28;;;23.04
18713;BMP280;9485;49.386;8.674;2022-08-21T22:28:23;100144.22;;;22.97
18713;BMP280;9485;49.386;8.674;2022-08-21T22:34:05;100144.28;;;22.90
18713;BMP280;9485;49.386;8.674;2022-08-21T22:39:29;100152.22;;;22.82
18713;BMP280;9485;49.386;8.674;2022-08-21T22:44:53;100153.03;;;22.75
18713;BMP280;9485;49.386;8.674;2022-08-21T22:50:26;100162.31;;;22.66
18713;BMP280;9485;49.386;8.674;2022-08-21T22:55:55;100165.84;;;22.57
18713;BMP280;9485;49.386;8.674;2022-08-21T23:01:36;100167.81;;;22.47
18713;BMP280;9485;49.386;8.674;2022-08-21T23:07:02;100162.47;;;22.44
18713;BMP280;9485;49.386;8.674;2022-08-21T23:12:26;100175.53;;;22.37
18713;BMP280;9485;49.386;8.674;2022-08-21T23:17:59;100169.84;;;22.30
18713;BMP280;9485;49.386;8.674;2022-08-21T23:23:26;100175.41;;;22.20
18713;BMP280;9485;49.386;8.674;2022-08-21T23:29:18;100196.75;;;22.10
18713;BMP280;9485;49.386;8.674;2022-08-21T23:34:56;100198.88;;;22.02
18713;BMP280;9485;49.386;8.674;2022-08-21T23:40:39;100197.41;;;21.93
18713;BMP280;9485;49.386;8.674;2022-08-21T23:46:28;100206.97;;;21.89
18713;BMP280;9485;49.386;8.674;2022-08-21T23:52:05;100188.63;;;21.84
18713;BMP280;9485;49.386;8.674;2022-08-21T23:57:48;100193.38;;;21.82
